Time;durP1;ratioP1;P1;durP2;ratioP2;P2;SDS_P1;SDS_P2;PMS_P1;PMS_P2;Temp;Humidity;BMP_temperature;BMP_pressure;BME280_temperature;BME280_humidity;BME280_pressure;Samples;Min_cycle;Max_cycle;Signal;HPM_P1;HPM_P2
2023/01/25 00:02:13;;;;;;;23.55;14.20;;;3.70;99.90;;;;;;6237818;28;20519;-81
2023/01/25 00:05:16;;;;;;;30.27;15.25;;;3.70;99.90;;;;;;6242308;28;20053;-82
2023/01/25 00:08:20;;;;;;;27.70;14.30;;;3.70;99.90;;;;;;6262878;28;20041;-82
2023/01/25 00:11:21;;;;;;;23.00;13.15;;;3.70;99.90;;;;;;6261555;28;20079;-82
2023/01/25 00:14:23;;;;;;;24.33;14.50;;;3.70;99.90;;;;;;6262481;28;20049;-83
2023/01/25 00:17:26;;;;;;;27.02;14.77;;;3.80;99.90;;;;;;6259528;28;20045;-83
2023/01/25 00:20:29;;;;;;;29.80;13.35;;;3.80;99.90;;;;;;6258952;28;20054;-83
2023/01/25 00:23:34;;;;;;;23.00;12.43;;;3.70;99.90;;;;;;6259371;28;20045;-82
2023/01/25 00:26:36;;;;;;;22.42;11.98;;;3.70;99.90;;;;;;6261285;28;20053;-82
2023/01/25 00:41:22;;;;;;;23.30;14.80;;;3.70;99.90;;;;;;6230239;28;20050;-82
2023/01/25 00:44:24;;;;;;;21.55;14.23;;;3.70;99.90;;;;;;6228388;28;20066;-82
2023/01/25 00:47:25;;;;;;;20.98;12.70;;;3.70;99.90;;;;;;6228265;28;20052;-83
2023/01/25 00:50:28;;;;;;;25.60;14.93;;;3.70;99.90;;;;;;6231383;28;20050;-83
2023/01/25 00:53:30;;;;;;;23.88;15.30;;;3.70;99.90;;;;;;6231404;28;20053;-83
2023/01/25 00:56:34;;;;;;;24.08;14.48;;;3.70;99.90;;;;;;6231547;28;20061;-83
2023/01/25 00:59:43;;;;;;;23.77;14.15;;;3.70;99.90;;;;;;6241703;28;20060;-82
2023/01/25 01:02:46;;;;;;;29.30;16.05;;;3.70;99.90;;;;;;6226006;28;20050;-83
2023/01/25 01:09:42;;;;;;;25.90;14.80;;;3.70;99.90;;;;;;6218544;28;20045;-83
2023/01/25 01:20:11;;;;;;;22.60;15.57;;;3.70;99.90;;;;;;6230692;28;20008;-83
2023/01/25 01:23:13;;;;;;;24.05;13.98;;;3.60;99.90;;;;;;6220180;28;20053;-82
2023/01/25 01:26:18;;;;;;;26.55;15.63;;;3.60;99.90;;;;;;6228931;28;20056;-82
2023/01/25 01:29:21;;;;;;;25.35;14.75;;;3.60;99.90;;;;;;6227815;28;20053;-83
2023/01/25 01:32:23;;;;;;;25.63;14.88;;;3.60;99.90;;;;;;6228298;28;20052;-82
2023/01/25 01:35:24;;;;;;;24.92;15.90;;;3.60;99.90;;;;;;6227684;28;20046;-82
2023/01/25 01:38:26;;;;;;;27.67;17.35;;;3.60;99.90;;;;;;6228552;28;20050;-82
2023/01/25 01:41:28;;;;;;;24.33;14.43;;;3.60;99.90;;;;;;6228237;28;20727;-82
2023/01/25 01:44:47;;;;;;;24.42;14.63;;;3.60;99.90;;;;;;6230162;28;20046;-82
2023/01/25 01:47:49;;;;;;;25.10;15.45;;;3.60;99.90;;;;;;6229186;28;20060;-83
2023/01/25 01:50:57;;;;;;;21.17;14.00;;;3.60;99.90;;;;;;6229935;28;20048;-82
2023/01/25 01:54:05;;;;;;;25.88;14.88;;;3.60;99.90;;;;;;6230435;28;20054;-82
2023/01/25 01:57:13;;;;;;;24.20;15.48;;;3.60;99.90;;;;;;6229653;28;20057;-83
2023/01/25 02:00:21;;;;;;;36.25;17.92;;;3.60;99.90;;;;;;6249936;28;20049;-82
2023/01/25 02:03:23;;;;;;;29.45;16.48;;;3.60;99.90;;;;;;6252298;28;20423;-82
2023/01/25 02:06:31;;;;;;;30.80;17.85;;;3.60;99.90;;;;;;6251495;28;20053;-84
2023/01/25 02:09:35;;;;;;;24.45;16.15;;;3.60;99.90;;;;;;6252007;28;20518;-83
2023/01/25 02:12:38;;;;;;;27.50;16.38;;;3.60;99.90;;;;;;6256993;28;20045;-82
2023/01/25 02:15:46;;;;;;;26.25;17.58;;;3.60;99.90;;;;;;6250520;28;20060;-83
2023/01/25 02:18:48;;;;;;;26.58;17.75;;;3.60;99.90;;;;;;6250556;28;20809;-83
2023/01/25 02:21:53;;;;;;;27.00;17.15;;;3.60;99.90;;;;;;6251916;28;20053;-82
2023/01/25 02:25:08;;;;;;;24.00;15.27;;;3.60;99.90;;;;;;6251163;28;20534;-82
2023/01/25 02:28:16;;;;;;;27.30;15.27;;;3.60;99.90;;;;;;6240086;28;20065;-82
2023/01/25 02:31:18;;;;;;;29.00;16.48;;;3.60;99.90;;;;;;6228163;28;20654;-83
2023/01/25 02:34:27;;;;;;;27.85;17.00;;;3.60;99.90;;;;;;6229130;28;20046;-82
2023/01/25 02:37:42;;;;;;;25.88;16.85;;;3.60;99.90;;;;;;6228844;28;20065;-83
2023/01/25 02:40:50;;;;;;;25.48;13.80;;;3.60;99.90;;;;;;6228465;28;20510;-83
2023/01/25 02:43:55;;;;;;;29.33;17.83;;;3.60;99.90;;;;;;6229122;28;20050;-83
2023/01/25 02:46:59;;;;;;;21.33;12.32;;;3.60;99.90;;;;;;6224537;28;20127;-83
2023/01/25 02:50:05;;;;;;;29.88;17.42;;;3.60;99.90;;;;;;6239998;28;20077;-82
2023/01/25 02:53:18;;;;;;;27.08;17.85;;;3.50;99.90;;;;;;6234141;28;20042;-82
2023/01/25 02:56:32;;;;;;;23.75;15.25;;;3.50;99.90;;;;;;6228498;28;20061;-83
2023/01/25 02:59:35;;;;;;;28.65;17.17;;;3.50;99.90;;;;;;6228418;28;20581;-82
2023/01/25 03:02:44;;;;;;;24.08;15.02;;;3.50;99.90;;;;;;6229167;28;20050;-82
2023/01/25 03:05:53;;;;;;;28.73;17.25;;;3.60;99.90;;;;;;6229964;28;20424;-82
2023/01/25 03:09:00;;;;;;;27.02;16.20;;;3.60;99.90;;;;;;6231617;28;20042;-83
2023/01/25 03:12:03;;;;;;;27.52;15.07;;;3.60;99.90;;;;;;6231209;28;20046;-81
2023/01/25 03:15:06;;;;;;;32.78;18.05;;;3.60;99.90;;;;;;6228746;28;20504;-81
2023/01/25 03:18:08;;;;;;;34.05;15.60;;;3.60;99.90;;;;;;6208600;28;20265;-82
2023/01/25 03:21:12;;;;;;;28.48;16.13;;;3.60;99.90;;;;;;6207214;28;20749;-82
2023/01/25 03:24:14;;;;;;;23.98;15.55;;;3.60;99.90;;;;;;6206680;28;20050;-81
2023/01/25 03:27:17;;;;;;;27.50;15.55;;;3.60;99.90;;;;;;6204799;28;20049;-81
2023/01/25 03:30:19;;;;;;;24.98;13.75;;;3.60;99.90;;;;;;6199915;28;20146;-82
2023/01/25 03:33:23;;;;;;;32.55;18.55;;;3.60;99.90;;;;;;6198112;28;20673;-82
2023/01/25 03:36:25;;;;;;;30.25;15.98;;;3.60;99.90;;;;;;6200102;28;20061;-81
2023/01/25 03:39:27;;;;;;;24.85;14.10;;;3.60;99.90;;;;;;6199447;28;20460;-81
2023/01/25 03:42:30;;;;;;;30.13;15.55;;;3.60;99.90;;;;;;6199063;28;20551;-81
2023/01/25 03:45:32;;;;;;;33.00;16.90;;;3.60;99.90;;;;;;6201705;28;20416;-81
2023/01/25 03:48:34;;;;;;;23.92;15.68;;;3.60;99.90;;;;;;6204467;28;20050;-81
2023/01/25 03:51:35;;;;;;;28.45;16.08;;;3.60;99.90;;;;;;6207000;28;20050;-82
2023/01/25 03:54:37;;;;;;;29.75;16.00;;;3.60;99.90;;;;;;6210515;28;20050;-80
2023/01/25 03:57:40;;;;;;;32.35;19.95;;;3.60;99.90;;;;;;6215503;28;20054;-81
2023/01/25 04:00:42;;;;;;;33.38;17.95;;;3.60;99.90;;;;;;6199751;28;20042;-81
2023/01/25 04:03:43;;;;;;;33.63;18.50;;;3.60;99.90;;;;;;6199600;28;20047;-81
2023/01/25 04:06:45;;;;;;;33.92;18.48;;;3.60;99.90;;;;;;6197995;28;20054;-81
2023/01/25 04:09:48;;;;;;;34.03;18.45;;;3.60;99.90;;;;;;6228476;28;20435;-81
2023/01/25 04:12:51;;;;;;;25.25;15.73;;;3.50;99.90;;;;;;6248780;28;20061;-82
2023/01/25 04:15:53;;;;;;;27.23;15.57;;;3.60;99.90;;;;;;6248111;28;20053;-81
2023/01/25 04:18:54;;;;;;;29.90;16.60;;;3.50;99.90;;;;;;6249426;28;20045;-81
2023/01/25 04:22:00;;;;;;;30.08;16.75;;;3.50;99.90;;;;;;6250435;28;20053;-82
2023/01/25 04:25:03;;;;;;;29.85;17.95;;;3.50;99.90;;;;;;6251750;28;20045;-81
2023/01/25 04:28:06;;;;;;;30.52;16.05;;;3.50;99.90;;;;;;6248298;28;20049;-82
2023/01/25 04:31:10;;;;;;;30.63;16.48;;;3.50;99.90;;;;;;6248820;28;20045;-82
2023/01/25 04:34:15;;;;;;;29.88;16.55;;;3.50;99.90;;;;;;6249119;28;20045;-82
2023/01/25 04:37:17;;;;;;;30.48;16.63;;;3.40;99.90;;;;;;6247104;28;20065;-81
2023/01/25 04:40:19;;;;;;;38.35;20.20;;;3.40;99.90;;;;;;6249335;28;20052;-81
2023/01/25 04:43:23;;;;;;;25.77;16.25;;;3.40;99.90;;;;;;6249096;28;20048;-82
2023/01/25 04:46:25;;;;;;;28.83;16.25;;;3.40;99.90;;;;;;6248973;28;20144;-81
2023/01/25 04:49:27;;;;;;;27.85;15.93;;;3.40;99.90;;;;;;6250370;28;20061;-81
2023/01/25 04:52:29;;;;;;;28.70;15.40;;;3.40;99.90;;;;;;6248471;28;20049;-81
2023/01/25 04:55:31;;;;;;;21.15;12.95;;;3.40;99.90;;;;;;6249413;28;20071;-82
2023/01/25 04:58:34;;;;;;;24.02;13.13;;;3.40;99.90;;;;;;6261107;28;20050;-81
2023/01/25 05:01:35;;;;;;;32.85;16.40;;;3.30;99.90;;;;;;6255276;28;20060;-82
2023/01/25 05:04:37;;;;;;;30.95;16.20;;;3.40;99.90;;;;;;6252534;28;20048;-82
2023/01/25 05:07:39;;;;;;;32.17;17.48;;;3.40;99.90;;;;;;6254375;28;20058;-82
2023/01/25 05:10:40;;;;;;;30.02;14.88;;;3.40;99.90;;;;;;6254148;28;20064;-83
2023/01/25 05:13:44;;;;;;;27.88;15.45;;;3.40;99.90;;;;;;6257099;28;20042;-83
2023/01/25 05:16:46;;;;;;;26.05;15.18;;;3.40;99.90;;;;;;6261265;28;20053;-82
2023/01/25 05:19:47;;;;;;;35.88;17.60;;;3.40;99.90;;;;;;6262533;28;20068;-84
2023/01/25 05:22:49;;;;;;;29.95;17.50;;;3.30;99.90;;;;;;6246471;28;20050;-84
2023/01/25 05:29:12;;;;;;;28.65;14.90;;;3.30;99.90;;;;;;6238512;28;20105;-83
2023/01/25 05:32:15;;;;;;;22.13;13.55;;;3.30;99.90;;;;;;6243255;28;20052;-85
2023/01/25 05:35:17;;;;;;;29.70;15.60;;;3.40;99.90;;;;;;6235894;28;20042;-83
2023/01/25 05:38:19;;;;;;;28.17;15.60;;;3.30;99.90;;;;;;6232718;28;20061;-82
2023/01/25 05:41:21;;;;;;;32.28;16.45;;;3.30;99.90;;;;;;6234367;28;20144;-82
2023/01/25 05:44:24;;;;;;;29.63;15.07;;;3.30;99.90;;;;;;6231003;28;20053;-82
2023/01/25 05:47:26;;;;;;;34.47;18.27;;;3.30;99.90;;;;;;6230957;28;20050;-82
2023/01/25 05:50:28;;;;;;;33.63;16.77;;;3.20;99.90;;;;;;6231965;28;20519;-82
2023/01/25 05:53:30;;;;;;;32.45;17.45;;;3.20;99.90;;;;;;6233224;28;20054;-82
2023/01/25 05:56:32;;;;;;;36.08;18.23;;;3.20;99.90;;;;;;6235367;28;20397;-83
2023/01/25 05:59:35;;;;;;;33.38;19.10;;;3.20;99.90;;;;;;6252755;28;20051;-82
2023/01/25 06:02:36;;;;;;;27.23;16.20;;;3.20;99.90;;;;;;6262895;28;20049;-82
2023/01/25 06:05:38;;;;;;;25.98;14.82;;;3.20;99.90;;;;;;6262583;28;20423;-83
2023/01/25 06:08:40;;;;;;;32.03;18.67;;;3.20;99.90;;;;;;6262254;28;20415;-82
2023/01/25 06:11:44;;;;;;;29.70;16.45;;;3.10;99.90;;;;;;6259728;28;20533;-82
2023/01/25 06:14:47;;;;;;;28.05;16.65;;;3.10;99.90;;;;;;6260250;28;20083;-83
2023/01/25 06:17:49;;;;;;;28.92;15.55;;;3.10;99.90;;;;;;6261292;28;20045;-82
2023/01/25 06:20:50;;;;;;;43.15;21.92;;;3.10;99.90;;;;;;6260132;28;20048;-83
2023/01/25 06:23:52;;;;;;;32.15;17.05;;;3.10;99.90;;;;;;6261460;28;20047;-84
2023/01/25 06:26:54;;;;;;;32.28;16.58;;;3.10;99.90;;;;;;6260927;28;20056;-83
2023/01/25 06:29:57;;;;;;;29.98;15.25;;;3.00;99.90;;;;;;6261479;28;20059;-82
2023/01/25 06:32:59;;;;;;;27.00;15.52;;;3.00;99.90;;;;;;6260297;28;20045;-82
2023/01/25 06:36:02;;;;;;;28.35;15.82;;;3.00;99.90;;;;;;6261888;28;20056;-83
2023/01/25 06:39:04;;;;;;;31.40;16.42;;;3.00;99.90;;;;;;6261389;28;20046;-82
2023/01/25 06:42:06;;;;;;;29.42;16.38;;;3.00;99.90;;;;;;6262248;28;20061;-82
2023/01/25 06:45:10;;;;;;;31.58;16.63;;;2.90;99.90;;;;;;6263234;28;20056;-82
2023/01/25 06:48:12;;;;;;;33.47;18.95;;;3.00;99.90;;;;;;6264065;28;20277;-82
2023/01/25 06:51:15;;;;;;;33.45;17.33;;;3.00;99.90;;;;;;6265632;28;20503;-81
2023/01/25 06:54:17;;;;;;;34.42;17.73;;;3.00;99.90;;;;;;6262014;28;20056;-82
2023/01/25 06:57:19;;;;;;;28.63;15.00;;;3.00;99.90;;;;;;6258501;28;20080;-81
2023/01/25 07:00:22;;;;;;;32.60;17.25;;;3.00;99.90;;;;;;6257444;28;20534;-81
2023/01/25 07:03:23;;;;;;;29.45;16.70;;;3.00;99.90;;;;;;6257256;28;20045;-81
2023/01/25 07:06:26;;;;;;;31.80;18.20;;;3.00;99.90;;;;;;6259087;28;20053;-81
2023/01/25 07:09:28;;;;;;;32.88;17.13;;;2.90;99.90;;;;;;6259465;28;20050;-81
2023/01/25 07:12:30;;;;;;;34.92;17.52;;;3.00;99.90;;;;;;6258320;28;20068;-82
2023/01/25 07:15:32;;;;;;;36.65;17.50;;;3.00;99.90;;;;;;6246655;28;20050;-81
2023/01/25 07:18:36;;;;;;;33.50;17.45;;;3.00;99.90;;;;;;6234021;28;20057;-81
2023/01/25 07:21:38;;;;;;;28.45;16.50;;;2.90;99.90;;;;;;6233261;28;20120;-81
2023/01/25 07:24:39;;;;;;;25.42;15.85;;;3.00;99.90;;;;;;6233880;28;20523;-81
2023/01/25 07:27:41;;;;;;;39.00;19.38;;;3.00;99.90;;;;;;6233418;28;20049;-80
2023/01/25 07:30:44;;;;;;;32.42;16.80;;;3.00;99.90;;;;;;6235660;28;20054;-82
2023/01/25 07:33:49;;;;;;;33.15;15.70;;;3.00;99.90;;;;;;6236496;28;20129;-81
2023/01/25 07:36:50;;;;;;;34.58;17.83;;;3.00;99.90;;;;;;6230620;28;20400;-81
2023/01/25 07:39:52;;;;;;;33.17;15.93;;;2.90;99.90;;;;;;6230478;28;20057;-81
2023/01/25 07:42:54;;;;;;;33.30;17.95;;;2.90;99.90;;;;;;6252133;28;20057;-81
2023/01/25 07:46:02;;;;;;;36.70;16.80;;;2.90;99.90;;;;;;6244741;28;20046;-81
2023/01/25 07:49:03;;;;;;;30.00;15.38;;;2.90;99.90;;;;;;6229627;28;20049;-80
2023/01/25 07:52:05;;;;;;;27.60;15.18;;;2.90;99.90;;;;;;6229462;28;20042;-80
2023/01/25 07:55:08;;;;;;;28.42;15.70;;;2.90;99.90;;;;;;6228289;28;20127;-81
2023/01/25 07:58:10;;;;;;;39.20;16.38;;;2.90;99.90;;;;;;6227481;28;20055;-80
2023/01/25 08:01:16;;;;;;;29.95;16.23;;;2.90;99.90;;;;;;6226713;28;20049;-82
2023/01/25 08:04:18;;;;;;;28.30;14.82;;;2.90;99.90;;;;;;6227456;28;20077;-78
2023/01/25 08:07:22;;;;;;;30.05;14.57;;;2.90;99.90;;;;;;6229406;28;20049;-82
2023/01/25 08:10:24;;;;;;;37.50;17.95;;;2.90;99.90;;;;;;6254279;28;20057;-82
2023/01/25 08:13:25;;;;;;;29.20;17.20;;;2.90;99.90;;;;;;6252090;28;20053;-81
2023/01/25 08:16:29;;;;;;;32.25;17.55;;;2.90;99.90;;;;;;6262470;28;20121;-80
2023/01/25 08:19:31;;;;;;;33.25;16.58;;;2.90;99.90;;;;;;6259171;28;20550;-82
2023/01/25 08:22:32;;;;;;;39.85;16.83;;;3.00;99.90;;;;;;6253828;28;20502;-83
2023/01/25 08:25:34;;;;;;;29.15;14.80;;;2.90;99.90;;;;;;6253215;28;20057;-82
2023/01/25 08:28:36;;;;;;;34.58;17.83;;;3.00;99.90;;;;;;6249836;28;20049;-81
2023/01/25 08:31:40;;;;;;;26.13;15.32;;;3.00;99.90;;;;;;6251209;28;20434;-81
2023/01/25 08:34:42;;;;;;;23.83;13.82;;;3.00;99.90;;;;;;6252428;28;20045;-81
2023/01/25 08:37:44;;;;;;;25.70;15.55;;;3.10;99.90;;;;;;6253158;28;20053;-82
2023/01/25 08:40:45;;;;;;;27.67;16.13;;;3.10;99.90;;;;;;6252892;28;20419;-82
2023/01/25 08:43:47;;;;;;;28.23;15.70;;;3.10;99.90;;;;;;6252844;28;20041;-82
2023/01/25 08:46:51;;;;;;;24.67;13.25;;;3.10;99.90;;;;;;6253174;28;20046;-82
2023/01/25 08:49:54;;;;;;;29.65;13.88;;;3.20;99.90;;;;;;6252389;28;20050;-82
2023/01/25 08:52:55;;;;;;;37.40;22.20;;;3.20;99.90;;;;;;6253440;28;20395;-82
2023/01/25 08:56:03;;;;;;;43.60;26.67;;;3.20;99.90;;;;;;6252453;28;20072;-83
2023/01/25 08:59:05;;;;;;;48.05;28.10;;;3.30;99.90;;;;;;6253488;28;20052;-82
2023/01/25 09:02:10;;;;;;;28.33;17.67;;;3.30;99.90;;;;;;6253786;28;20586;-83
2023/01/25 09:05:12;;;;;;;25.83;14.68;;;3.40;99.90;;;;;;6253202;28;20045;-82
2023/01/25 09:08:14;;;;;;;28.25;13.88;;;3.30;99.90;;;;;;6253425;28;20053;-82
2023/01/25 09:11:17;;;;;;;27.65;14.45;;;3.30;99.90;;;;;;6253498;28;20046;-82
2023/01/25 09:14:19;;;;;;;25.65;13.43;;;3.30;99.90;;;;;;6253445;28;20044;-82
2023/01/25 09:17:22;;;;;;;25.08;15.40;;;3.30;99.90;;;;;;6244239;28;20049;-82
2023/01/25 09:20:24;;;;;;;28.67;14.57;;;3.30;99.90;;;;;;6229455;28;20057;-82
2023/01/25 09:23:25;;;;;;;34.95;20.50;;;3.30;99.90;;;;;;6228895;28;20065;-83
2023/01/25 09:26:27;;;;;;;31.00;17.95;;;3.30;99.90;;;;;;6228414;28;20046;-81
2023/01/25 09:29:29;;;;;;;25.13;17.73;;;3.40;99.90;;;;;;6229009;28;20496;-83
2023/01/25 09:32:32;;;;;;;29.40;17.08;;;3.40;99.90;;;;;;6230719;28;20516;-82
2023/01/25 09:35:34;;;;;;;21.10;14.57;;;3.40;99.90;;;;;;6234810;28;20415;-81
2023/01/25 09:38:36;;;;;;;25.92;14.27;;;3.50;99.90;;;;;;6233696;28;20061;-81
2023/01/25 09:42:00;;;;;;;27.80;14.98;;;3.50;99.90;;;;;;6235541;28;20057;-82
2023/01/25 09:45:22;;;;;;;30.42;16.42;;;3.50;99.90;;;;;;6234233;28;20092;-82
2023/01/25 09:48:36;;;;;;;27.83;15.95;;;3.50;99.90;;;;;;6245891;28;20060;-82
2023/01/25 09:51:52;;;;;;;30.98;15.50;;;3.60;99.90;;;;;;6262476;28;20087;-82
2023/01/25 09:54:54;;;;;;;27.60;15.25;;;3.60;99.90;;;;;;6256754;28;20041;-82
2023/01/25 09:57:59;;;;;;;27.48;15.45;;;3.60;99.90;;;;;;6256336;28;20053;-82
2023/01/25 10:01:19;;;;;;;24.90;17.70;;;3.60;99.90;;;;;;6255190;28;20050;-82
2023/01/25 10:04:24;;;;;;;26.27;16.80;;;3.60;99.90;;;;;;6255964;28;20057;-83
2023/01/25 10:07:31;;;;;;;21.92;14.38;;;3.70;99.90;;;;;;6255521;28;20499;-81
2023/01/25 10:10:37;;;;;;;25.75;12.55;;;3.70;99.90;;;;;;6254596;28;20053;-82
2023/01/25 10:13:38;;;;;;;25.30;14.02;;;3.70;99.90;;;;;;6254245;28;20066;-82
2023/01/25 10:16:51;;;;;;;27.17;13.93;;;3.80;99.90;;;;;;6232803;28;20463;-82
2023/01/25 10:20:15;;;;;;;40.90;22.67;;;3.80;99.90;;;;;;6241915;28;20050;-81
2023/01/25 10:23:33;;;;;;;34.20;18.77;;;3.90;99.90;;;;;;6230344;28;20046;-82
2023/01/25 10:26:36;;;;;;;24.43;14.23;;;3.90;99.90;;;;;;6233638;28;20124;-79
2023/01/25 10:29:39;;;;;;;25.88;13.50;;;3.90;99.90;;;;;;6253752;28;20058;-80
2023/01/25 10:32:41;;;;;;;16.52;10.93;;;4.00;99.90;;;;;;6251641;28;20057;-79
2023/01/25 10:35:45;;;;;;;24.33;14.57;;;3.90;99.90;;;;;;6253814;28;20526;-79
2023/01/25 10:39:00;;;;;;;23.27;11.68;;;3.90;99.90;;;;;;6250989;28;20439;-80
2023/01/25 10:42:07;;;;;;;20.05;12.05;;;4.00;99.90;;;;;;6373855;23;20063;-80
2023/01/25 10:45:13;;;;;;;24.58;13.82;;;3.90;99.90;;;;;;6300782;28;20494;-80
2023/01/25 10:48:19;;;;;;;25.60;12.00;;;3.90;99.90;;;;;;6301813;28;20065;-80
2023/01/25 10:51:31;;;;;;;26.80;13.90;;;3.90;99.90;;;;;;6282135;28;20056;-78
2023/01/25 10:54:32;;;;;;;25.23;14.10;;;4.00;99.90;;;;;;6276124;28;20108;-77
2023/01/25 10:57:35;;;;;;;30.35;16.48;;;4.00;99.90;;;;;;6273625;28;20051;-80
2023/01/25 11:00:39;;;;;;;22.67;13.15;;;4.00;99.90;;;;;;6281660;28;20049;-80
2023/01/25 11:03:43;;;;;;;22.05;13.95;;;4.00;99.90;;;;;;6281206;28;20045;-80
2023/01/25 11:06:50;;;;;;;29.50;15.23;;;4.00;99.90;;;;;;6277017;28;20059;-81
2023/01/25 11:09:51;;;;;;;18.63;11.63;;;4.00;99.90;;;;;;6276056;28;20049;-80
2023/01/25 11:13:18;;;;;;;17.23;10.65;;;4.00;99.90;;;;;;6277636;28;20392;-81
2023/01/25 11:16:29;;;;;;;19.95;12.15;;;4.00;99.90;;;;;;6277741;28;20380;-81
2023/01/25 11:19:35;;;;;;;21.15;11.85;;;4.00;99.90;;;;;;6276763;28;20056;-81
2023/01/25 11:22:49;;;;;;;25.13;12.80;;;4.10;99.90;;;;;;6281345;28;20040;-81
2023/01/25 11:25:52;;;;;;;20.45;12.60;;;4.10;99.90;;;;;;6278991;28;20055;-80
2023/01/25 11:29:08;;;;;;;32.53;15.68;;;4.10;99.90;;;;;;6275689;28;20044;-80
2023/01/25 11:32:20;;;;;;;23.77;13.70;;;4.10;99.90;;;;;;6277157;28;20068;-80
2023/01/25 11:35:32;;;;;;;22.20;14.00;;;4.10;99.90;;;;;;6277525;28;20045;-79
2023/01/25 11:46:39;;;;;;;23.63;14.57;;;4.00;99.90;;;;;;6275613;28;20121;-80
2023/01/25 11:49:52;;;;;;;22.15;13.73;;;4.10;99.90;;;;;;6275753;28;20045;-81
2023/01/25 11:53:15;;;;;;;24.27;14.15;;;4.00;99.90;;;;;;6277298;28;20048;-82
2023/01/25 11:56:27;;;;;;;22.23;11.82;;;4.00;99.90;;;;;;6275765;28;20124;-81
2023/01/25 11:59:50;;;;;;;23.13;14.43;;;4.00;99.90;;;;;;6273483;28;20072;-83
2023/01/25 12:03:40;;;;;;;28.00;15.88;;;4.00;99.90;;;;;;6277647;28;20048;-83
2023/01/25 12:06:54;;;;;;;23.52;14.27;;;4.00;99.90;;;;;;6261836;28;20045;-82
2023/01/25 12:10:14;;;;;;;25.58;16.17;;;3.90;99.90;;;;;;6275069;28;20060;-81
2023/01/25 12:13:23;;;;;;;28.02;17.63;;;3.90;99.90;;;;;;6276196;28;20059;-82
2023/01/25 12:16:42;;;;;;;29.20;17.02;;;3.90;99.90;;;;;;6278923;28;20044;-81
2023/01/25 12:20:07;;;;;;;27.85;14.73;;;3.90;99.90;;;;;;6262637;28;20056;-80
2023/01/25 12:23:58;;;;;;;23.95;15.98;;;3.90;99.90;;;;;;6249747;28;20057;-81
2023/01/25 12:27:14;;;;;;;21.83;14.25;;;3.80;99.90;;;;;;6267880;28;20417;-81
2023/01/25 12:30:33;;;;;;;23.98;15.68;;;3.90;99.90;;;;;;6276418;28;20562;-80
2023/01/25 12:33:42;;;;;;;22.98;14.45;;;3.90;99.90;;;;;;6251447;28;20407;-80
2023/01/25 12:36:47;;;;;;;24.98;14.60;;;3.90;99.90;;;;;;6252868;28;20104;-79
2023/01/25 12:39:55;;;;;;;21.63;13.20;;;3.90;99.90;;;;;;6254473;28;20104;-79
2023/01/25 12:43:00;;;;;;;23.50;14.63;;;3.90;99.90;;;;;;6259219;28;20060;-79
2023/01/25 12:46:09;;;;;;;19.52;12.13;;;3.90;99.90;;;;;;6253039;28;20095;-80
2023/01/25 12:49:19;;;;;;;21.75;14.25;;;3.90;99.90;;;;;;6246953;28;20050;-79
2023/01/25 12:52:25;;;;;;;18.63;11.88;;;3.90;99.90;;;;;;6243642;28;20537;-80
2023/01/25 12:55:28;;;;;;;18.45;11.30;;;3.80;99.90;;;;;;6237215;28;20038;-79
2023/01/25 12:58:38;;;;;;;19.80;12.50;;;3.80;99.90;;;;;;6246096;28;20045;-78
2023/01/25 13:01:49;;;;;;;22.05;11.48;;;3.80;99.90;;;;;;6251038;28;20064;-78
2023/01/25 13:05:01;;;;;;;41.00;20.20;;;3.70;99.90;;;;;;6250440;28;20048;-78
2023/01/25 13:08:11;;;;;;;62.38;29.48;;;3.70;99.90;;;;;;6251891;28;20052;-78
2023/01/25 13:11:19;;;;;;;27.83;15.82;;;3.80;99.90;;;;;;6251791;28;20052;-79
2023/01/25 13:14:31;;;;;;;18.30;11.13;;;3.70;99.90;;;;;;6256476;28;20050;-80
2023/01/25 13:17:37;;;;;;;19.10;12.50;;;3.70;99.90;;;;;;6267795;28;20036;-78
2023/01/25 13:20:49;;;;;;;21.88;12.88;;;3.70;99.90;;;;;;6277013;28;20045;-78
2023/01/25 13:24:11;;;;;;;20.95;13.25;;;3.80;99.90;;;;;;6279098;28;20060;-79
2023/01/25 13:27:33;;;;;;;23.90;13.95;;;3.80;99.90;;;;;;6280045;28;20067;-78
2023/01/25 13:30:51;;;;;;;22.67;15.45;;;3.90;99.90;;;;;;6278147;28;20052;-80
2023/01/25 13:33:53;;;;;;;25.13;14.20;;;3.90;99.90;;;;;;6279284;28;20059;-80
2023/01/25 13:36:56;;;;;;;21.38;13.20;;;3.80;99.90;;;;;;6282316;28;20041;-81
2023/01/25 13:39:59;;;;;;;24.45;14.57;;;3.90;99.90;;;;;;6278663;28;20072;-81
2023/01/25 13:43:03;;;;;;;20.23;13.27;;;3.90;99.90;;;;;;6279024;28;20090;-80
2023/01/25 13:46:11;;;;;;;29.25;14.13;;;3.90;99.90;;;;;;6279173;28;20052;-80
2023/01/25 13:49:22;;;;;;;26.52;13.95;;;3.90;99.90;;;;;;6269621;28;20052;-79
2023/01/25 13:52:25;;;;;;;22.55;14.18;;;3.80;99.90;;;;;;6257507;28;20045;-79
2023/01/25 13:55:27;;;;;;;22.58;13.88;;;3.90;99.90;;;;;;6277278;28;20139;-81
2023/01/25 13:58:31;;;;;;;22.85;15.45;;;3.80;99.90;;;;;;6276503;28;20044;-82
2023/01/25 14:01:36;;;;;;;34.50;16.40;;;3.80;99.90;;;;;;6276091;28;20052;-82
2023/01/25 14:04:37;;;;;;;32.97;16.80;;;3.80;99.90;;;;;;6277819;28;20048;-81
2023/01/25 14:07:39;;;;;;;30.25;17.88;;;3.80;99.90;;;;;;6275485;28;20051;-80
2023/01/25 14:10:44;;;;;;;29.90;18.05;;;3.80;99.90;;;;;;6277739;28;20053;-81
2023/01/25 14:14:00;;;;;;;22.15;14.73;;;3.80;99.90;;;;;;6279750;28;20056;-81
2023/01/25 14:17:16;;;;;;;24.17;12.85;;;3.90;99.90;;;;;;6275889;28;20025;-79
2023/01/25 14:20:22;;;;;;;23.05;12.68;;;3.80;99.90;;;;;;6269901;28;20414;-81
2023/01/25 14:24:03;;;;;;;23.05;14.55;;;3.80;99.90;;;;;;6279732;28;20126;-81
2023/01/25 14:27:05;;;;;;;20.55;13.32;;;3.80;99.90;;;;;;6280135;28;20040;-82
2023/01/25 14:30:17;;;;;;;25.70;13.20;;;3.80;99.90;;;;;;6280960;28;20056;-81
2023/01/25 14:33:25;;;;;;;25.15;15.27;;;3.80;99.90;;;;;;6278747;28;20056;-81
2023/01/25 14:36:28;;;;;;;27.85;14.55;;;3.70;99.90;;;;;;6277805;28;20052;-82
2023/01/25 14:39:30;;;;;;;30.40;17.02;;;3.70;99.90;;;;;;6277810;28;20056;-79
2023/01/25 14:42:32;;;;;;;31.27;15.88;;;3.70;99.90;;;;;;6268924;28;20079;-81
2023/01/25 14:45:34;;;;;;;24.88;13.68;;;3.70;99.90;;;;;;6293372;28;20132;-80
2023/01/25 14:48:51;;;;;;;21.65;14.82;;;3.70;99.90;;;;;;6268609;28;20040;-80
2023/01/25 14:52:03;;;;;;;21.42;13.35;;;3.50;99.90;;;;;;6277796;28;20045;-79
2023/01/25 14:55:08;;;;;;;21.70;14.23;;;3.60;99.90;;;;;;6279368;28;20485;-80
2023/01/25 14:58:15;;;;;;;22.67;13.85;;;3.60;99.90;;;;;;6272576;28;20407;-80
2023/01/25 15:01:32;;;;;;;28.60;14.43;;;3.60;99.90;;;;;;6275654;28;20044;-79
2023/01/25 15:04:35;;;;;;;25.80;16.58;;;3.60;99.90;;;;;;6275671;28;20399;-80
2023/01/25 15:07:43;;;;;;;26.55;16.58;;;3.50;99.90;;;;;;6275118;28;20052;-79
2023/01/25 15:10:52;;;;;;;20.02;13.57;;;3.50;99.90;;;;;;6333319;22;20041;-79
2023/01/25 15:14:01;;;;;;;18.98;11.60;;;3.50;99.90;;;;;;6300295;28;20418;-79
2023/01/25 15:17:02;;;;;;;20.08;12.88;;;3.50;99.90;;;;;;6299069;28;20040;-79
2023/01/25 15:20:07;;;;;;;18.20;12.18;;;3.50;99.90;;;;;;6289867;28;20045;-79
2023/01/25 15:23:22;;;;;;;22.00;12.30;;;3.50;99.90;;;;;;6279316;28;20064;-79
2023/01/25 15:26:25;;;;;;;16.63;12.15;;;3.50;99.90;;;;;;6278497;28;20045;-79
2023/01/25 15:29:27;;;;;;;18.05;11.35;;;3.40;99.90;;;;;;6276126;28;20052;-79
2023/01/25 15:32:29;;;;;;;21.00;12.15;;;3.40;99.90;;;;;;6279485;28;20056;-79
2023/01/25 15:35:33;;;;;;;18.20;11.18;;;3.40;99.90;;;;;;6280302;28;20049;-80
2023/01/25 15:38:35;;;;;;;17.77;11.75;;;3.40;99.90;;;;;;6279294;28;20490;-81
2023/01/25 15:41:37;;;;;;;18.58;12.75;;;3.40;99.90;;;;;;6278749;28;20056;-81
2023/01/25 15:44:38;;;;;;;18.05;11.30;;;3.40;99.90;;;;;;6281562;28;20045;-80
2023/01/25 15:47:40;;;;;;;20.65;12.98;;;3.40;99.90;;;;;;6271681;28;20085;-81
2023/01/25 15:50:43;;;;;;;20.92;12.30;;;3.40;99.90;;;;;;6276474;28;20053;-81
2023/01/25 15:53:45;;;;;;;20.67;12.70;;;3.50;99.90;;;;;;6277239;28;20076;-81
2023/01/25 15:56:52;;;;;;;18.58;11.63;;;3.40;99.90;;;;;;6281298;28;20045;-80
2023/01/25 16:00:21;;;;;;;17.20;12.45;;;3.40;99.90;;;;;;6363351;23;20044;-81
2023/01/25 16:03:23;;;;;;;16.55;10.60;;;3.30;99.90;;;;;;6265857;28;20053;-81
2023/01/25 16:06:45;;;;;;;20.88;13.95;;;3.30;99.90;;;;;;6275635;28;20051;-81
2023/01/25 16:13:23;;;;;;;15.40;10.55;;;3.40;99.90;;;;;;6260201;28;20419;-82
2023/01/25 16:16:26;;;;;;;18.98;12.40;;;3.30;99.90;;;;;;6247846;28;20057;-81
2023/01/25 16:23:36;;;;;;;20.15;12.25;;;3.40;99.90;;;;;;6219658;28;20050;-81
2023/01/25 16:26:50;;;;;;;16.15;10.18;;;3.40;99.90;;;;;;6248755;28;20053;-83
2023/01/25 16:34:19;;;;;;;19.23;12.98;;;3.30;99.90;;;;;;6245537;28;20087;-82
2023/01/25 16:37:20;;;;;;;28.42;17.45;;;3.30;99.90;;;;;;6247997;28;20045;-83
2023/01/25 16:40:29;;;;;;;17.83;12.32;;;3.30;99.90;;;;;;6245433;28;20408;-82